Main page
METAR-TAF:

METAR-TAF

Airports :

Harbin Taiping International Airport

Harbin, China

latitude: 45-45N, longitude: 126-46E, elevation: 143 m

Current weather observation

The report was made 23 minutes ago, at 20:00 UTC
Wind 6 kt from the South/Southwest
Temperature 18°C
Humidity 88%
Pressure 1008 hPa
Visibility: 6000 m

METAR: ZYHB 182000Z 20003MPS 6000 NSC 18/16 Q1008 NOSIG

Time: 04:23 (20:23 UTC)

Forecast

The report was made 7 hours and 12 minutes ago, at 13:11 UTC
Forecast valid from 18 at 18 UTC to 19 at 18 UTC
Wind 8 kt from the South/Southwest
Visibility: 6000 m
Scattered clouds at a height of 3000 ft

TAF: ZYHB 181311Z 1818/1918 20004MPS 6000 SCT030 TX29/1906Z TN16/1821Z

Weather observations and forecasts of more than 4000 airports (METAR and TAF reports).

The available stations are represented by yellow and red dots on the map.

Hover mouse over dot to see the name of the station.

Then click to see weather observations and forecasts.

To change the map : click on the green buttons with a black cross to zoom in, on the green button with a dash to zoom out, or on the green arrows for adjacent maps.


METAR-TAF: